createdAt,value
2022-07-26T00:01:31.861Z,98482.99
2022-07-26T00:04:03.076Z,98476.02
2022-07-26T00:06:33.960Z,98469.22
2022-07-26T00:09:02.495Z,98467.98
2022-07-26T00:11:35.529Z,98458.72
2022-07-26T00:14:07.978Z,98453.45
2022-07-26T00:16:37.870Z,98452.60
2022-07-26T00:19:11.282Z,98446.73
2022-07-26T00:21:40.967Z,98442.48
2022-07-26T00:24:11.963Z,98442.45
2022-07-26T00:26:41.774Z,98445.64
2022-07-26T00:29:11.952Z,98441.02
2022-07-26T00:31:42.073Z,98443.12
2022-07-26T00:34:11.515Z,98447.73
2022-07-26T00:36:41.913Z,98439.30
2022-07-26T00:39:12.255Z,98431.17
2022-07-26T00:41:40.313Z,98430.52
2022-07-26T00:44:10.454Z,98426.02
2022-07-26T00:46:43.748Z,98427.31
2022-07-26T00:49:14.103Z,98420.50
2022-07-26T00:51:42.388Z,98421.02
2022-07-26T00:54:19.430Z,98419.54
2022-07-26T00:56:52.095Z,98418.89
2022-07-26T00:59:27.860Z,98426.20
2022-07-26T01:01:58.523Z,98432.11
2022-07-26T01:04:28.075Z,98436.69
2022-07-26T01:07:01.281Z,98437.92
2022-07-26T01:09:32.322Z,98436.91
2022-07-26T01:12:01.248Z,98433.20
2022-07-26T01:14:29.437Z,98434.20
2022-07-26T01:16:57.173Z,98430.27
2022-07-26T01:19:27.811Z,98425.38
2022-07-26T01:21:58.310Z,98418.63
2022-07-26T01:24:29.052Z,98415.05
2022-07-26T01:26:59.887Z,98405.46
2022-07-26T01:29:36.202Z,98401.70
2022-07-26T01:32:07.725Z,98396.23
2022-07-26T01:34:38.323Z,98391.83
2022-07-26T01:37:06.172Z,98391.73
2022-07-26T01:39:34.207Z,98393.31
2022-07-26T01:42:03.560Z,98393.34
2022-07-26T01:44:31.530Z,98389.54
2022-07-26T01:46:59.424Z,98384.85
2022-07-26T01:49:27.775Z,98384.61
2022-07-26T01:51:55.742Z,98377.88
2022-07-26T01:54:24.625Z,98374.62
2022-07-26T01:56:52.740Z,98378.42
2022-07-26T01:59:20.448Z,98383.57
2022-07-26T02:01:48.307Z,98380.80
2022-07-26T02:04:36.489Z,98378.63
2022-07-26T02:07:05.531Z,98385.10
2022-07-26T02:09:39.541Z,98389.21
2022-07-26T02:12:08.667Z,98386.22
2022-07-26T02:14:36.439Z,98386.24
2022-07-26T02:17:04.655Z,98386.17
2022-07-26T02:19:32.921Z,98381.67
2022-07-26T02:22:00.790Z,98380.73
2022-07-26T02:24:29.631Z,98375.80
2022-07-26T02:26:59.533Z,98370.76
2022-07-26T02:29:28.608Z,98363.40
2022-07-26T02:31:57.525Z,98364.33
2022-07-26T02:34:25.613Z,98368.36
2022-07-26T02:36:53.512Z,98364.80
2022-07-26T02:39:22.533Z,98356.90
2022-07-26T02:41:50.440Z,98361.16
2022-07-26T02:44:18.188Z,98359.21
2022-07-26T02:46:46.009Z,98363.13
2022-07-26T02:49:13.987Z,98363.02
2022-07-26T02:51:42.044Z,98363.19
2022-07-26T02:54:10.308Z,98364.07
2022-07-26T02:56:38.932Z,98359.15
2022-07-26T02:59:08.737Z,98354.41
2022-07-26T03:01:39.265Z,98349.12
2022-07-26T03:04:10.307Z,98341.56
2022-07-26T03:06:38.608Z,98337.33
2022-07-26T03:09:06.419Z,98339.98
2022-07-26T03:11:34.870Z,98336.02
2022-07-26T03:14:03.297Z,98333.21
2022-07-26T03:16:32.346Z,98333.83
2022-07-26T03:19:01.617Z,98334.25
2022-07-26T03:21:29.953Z,98335.36
2022-07-26T03:23:57.788Z,98329.20
2022-07-26T03:26:25.655Z,98327.02
2022-07-26T03:28:54.029Z,98322.83
2022-07-26T03:31:23.684Z,98326.29
2022-07-26T03:33:51.582Z,98324.36
2022-07-26T03:36:20.601Z,98317.28
2022-07-26T03:38:48.463Z,98317.48
2022-07-26T03:41:16.431Z,98315.27
2022-07-26T03:43:44.299Z,98313.91
2022-07-26T03:46:12.374Z,98315.08
2022-07-26T03:48:40.518Z,98312.40
2022-07-26T03:51:08.409Z,98310.67
2022-07-26T03:53:36.204Z,98308.48
2022-07-26T03:56:22.743Z,98303.77
2022-07-26T03:58:50.595Z,98299.05
2022-07-26T04:01:18.352Z,98301.59
2022-07-26T04:03:47.884Z,98304.38
2022-07-26T04:06:16.490Z,98305.08
2022-07-26T04:08:44.649Z,98300.44
2022-07-26T04:11:12.741Z,98295.05
2022-07-26T04:13:40.497Z,98294.35
2022-07-26T04:16:08.884Z,98291.46
2022-07-26T04:18:36.685Z,98290.42
2022-07-26T04:21:04.872Z,98285.52
2022-07-26T04:23:32.600Z,98284.71
2022-07-26T04:26:01.431Z,98277.63
2022-07-26T04:28:29.339Z,98274.34
2022-07-26T04:30:58.435Z,98275.45
2022-07-26T04:33:26.308Z,98277.47
2022-07-26T04:35:54.498Z,98281.07
2022-07-26T04:38:23.160Z,98276.14
2022-07-26T04:40:51.426Z,98275.16
2022-07-26T04:43:19.837Z,98271.48
2022-07-26T04:45:48.951Z,98269.20
2022-07-26T04:48:17.110Z,98263.41
2022-07-26T04:50:45.662Z,98262.85
2022-07-26T04:53:13.662Z,98259.44
2022-07-26T04:55:42.183Z,98257.13
2022-07-26T04:58:10.656Z,98257.55
2022-07-26T05:01:02.683Z,98263.42
2022-07-26T05:03:26.243Z,98270.74
2022-07-26T05:05:54.263Z,98275.23
2022-07-26T05:08:22.025Z,98274.29
2022-07-26T05:10:55.229Z,98275.80
2022-07-26T05:13:30.589Z,98279.73
2022-07-26T05:15:59.857Z,98271.80
2022-07-26T05:18:31.597Z,98274.41
2022-07-26T05:21:11.697Z,98272.63
2022-07-26T05:23:41.710Z,98268.11
2022-07-26T05:26:12.095Z,98267.79
2022-07-26T05:28:40.181Z,98274.43
2022-07-26T05:31:08.200Z,98272.89
2022-07-26T05:33:36.221Z,98278.27
2022-07-26T05:36:04.935Z,98276.55
2022-07-26T05:38:33.801Z,98273.39
2022-07-26T05:41:01.569Z,98269.59
2022-07-26T05:43:40.604Z,98270.42
2022-07-26T05:46:11.266Z,98269.05
2022-07-26T05:48:40.161Z,98265.05
2022-07-26T05:51:09.170Z,98274.33
2022-07-26T05:53:37.787Z,98273.77
2022-07-26T05:56:06.722Z,98277.17
2022-07-26T05:58:34.641Z,98271.05
2022-07-26T06:01:02.380Z,98273.64
2022-07-26T06:03:32.367Z,98268.63
2022-07-26T06:06:00.326Z,98271.76
2022-07-26T06:08:28.260Z,98270.00
2022-07-26T06:10:56.337Z,98267.91
2022-07-26T06:13:24.709Z,98262.92
2022-07-26T06:15:52.758Z,98260.27
2022-07-26T06:18:20.749Z,98261.81
2022-07-26T06:20:49.376Z,98260.59
2022-07-26T06:23:17.227Z,98264.95
2022-07-26T06:25:44.924Z,98261.23
2022-07-26T06:28:13.215Z,98259.81
2022-07-26T06:30:43.970Z,98254.44
2022-07-26T06:33:12.149Z,98259.33
2022-07-26T06:35:40.214Z,98262.93
2022-07-26T06:38:08.828Z,98262.11
2022-07-26T06:40:36.768Z,98260.15
2022-07-26T06:43:05.089Z,98260.41
2022-07-26T06:45:34.170Z,98258.70
2022-07-26T06:48:02.131Z,98258.02
2022-07-26T06:50:29.985Z,98254.85
2022-07-26T06:52:57.736Z,98255.61
2022-07-26T06:55:25.604Z,98256.98
2022-07-26T06:57:55.543Z,98261.98
2022-07-26T07:00:23.332Z,98255.79
2022-07-26T07:02:51.354Z,98250.94
2022-07-26T07:05:19.369Z,98248.59
2022-07-26T07:07:47.291Z,98253.48
2022-07-26T07:10:15.976Z,98256.30
2022-07-26T07:12:45.070Z,98248.27
2022-07-26T07:15:13.040Z,98247.36
2022-07-26T07:17:41.057Z,98247.27
2022-07-26T07:20:09.548Z,98246.89
2022-07-26T07:22:37.602Z,98242.74
2022-07-26T07:25:06.348Z,98244.66
2022-07-26T07:27:34.653Z,98247.69
2022-07-26T07:30:04.841Z,98245.35
2022-07-26T07:32:33.279Z,98247.85
2022-07-26T07:35:03.544Z,98249.09
2022-07-26T07:37:52.368Z,98242.45
2022-07-26T07:40:23.340Z,98241.32
2022-07-26T07:42:51.440Z,98241.95
2022-07-26T07:45:19.256Z,98244.80
2022-07-26T07:47:47.278Z,98243.16
2022-07-26T07:50:14.978Z,98240.73
2022-07-26T07:52:42.729Z,98239.48
2022-07-26T07:57:58.718Z,98239.84
2022-07-26T08:00:33.080Z,98241.25
2022-07-26T08:03:03.291Z,98236.34
2022-07-26T08:05:31.397Z,98239.64
2022-07-26T08:07:59.871Z,98239.71
2022-07-26T08:10:29.771Z,98241.88
2022-07-26T08:12:57.755Z,98239.91
2022-07-26T08:15:27.976Z,98242.96
2022-07-26T08:17:59.018Z,98237.28
2022-07-26T08:20:28.213Z,98237.85
2022-07-26T08:22:56.492Z,98239.65
2022-07-26T08:25:24.196Z,98233.00
2022-07-26T08:28:15.465Z,98233.23
2022-07-26T08:30:41.595Z,98233.67
2022-07-26T08:33:09.767Z,98237.72
2022-07-26T08:35:37.660Z,98241.48
2022-07-26T08:38:05.401Z,98242.79
2022-07-26T08:40:34.383Z,98244.17
2022-07-26T08:43:03.174Z,98246.79
2022-07-26T08:45:32.356Z,98253.38
2022-07-26T08:48:19.425Z,98260.09
2022-07-26T08:50:48.763Z,98265.36
2022-07-26T08:53:17.173Z,98259.04
2022-07-26T08:56:05.908Z,98254.45
2022-07-26T08:58:37.555Z,98261.39
2022-07-26T09:01:15.259Z,98260.95
2022-07-26T09:03:45.848Z,98255.56
2022-07-26T09:06:20.210Z,98258.02
2022-07-26T09:08:52.701Z,98256.23
2022-07-26T09:11:23.371Z,98250.41
2022-07-26T09:13:52.554Z,98247.70
2022-07-26T09:16:21.097Z,98252.90
2022-07-26T09:18:49.621Z,98255.44
2022-07-26T09:21:47.088Z,98254.29
2022-07-26T09:24:50.450Z,98257.36
2022-07-26T09:27:18.967Z,98262.23
2022-07-26T09:29:49.539Z,98258.83
2022-07-26T09:32:19.037Z,98261.42
2022-07-26T09:35:24.146Z,98255.55
2022-07-26T09:37:58.062Z,98259.02
2022-07-26T09:40:34.731Z,98258.88
2022-07-26T09:43:05.487Z,98258.33
2022-07-26T09:45:34.872Z,98262.16
2022-07-26T09:48:03.865Z,98260.80
2022-07-26T09:50:33.546Z,98262.53
2022-07-26T09:53:04.902Z,98265.20
2022-07-26T09:55:44.164Z,98264.94
2022-07-26T09:58:14.817Z,98259.86
2022-07-26T10:00:44.249Z,98270.08
2022-07-26T10:03:12.338Z,98268.83
2022-07-26T10:05:41.053Z,98270.61
2022-07-26T10:08:09.971Z,98269.84
2022-07-26T10:10:48.397Z,98267.80
2022-07-26T10:13:17.934Z,98266.86
2022-07-26T10:15:51.564Z,98267.96
2022-07-26T10:18:39.188Z,98271.45
2022-07-26T10:21:32.324Z,98271.67
2022-07-26T10:24:03.028Z,98267.10
2022-07-26T10:26:33.938Z,98266.52
2022-07-26T10:29:18.930Z,98264.55
2022-07-26T10:31:49.615Z,98263.42
2022-07-26T10:34:37.061Z,98269.03
2022-07-26T10:37:08.976Z,98267.63
2022-07-26T10:39:39.067Z,98269.41
2022-07-26T10:42:13.282Z,98259.63
2022-07-26T10:44:45.026Z,98259.61
2022-07-26T10:47:18.570Z,98270.36
2022-07-26T10:50:01.253Z,98275.25
2022-07-26T10:52:32.207Z,98275.44
2022-07-26T10:55:00.977Z,98276.84
2022-07-26T10:57:44.738Z,98272.45
2022-07-26T11:00:13.877Z,98278.58
2022-07-26T11:02:44.448Z,98274.45
2022-07-26T11:05:19.680Z,98279.41
2022-07-26T11:08:09.224Z,98268.92
2022-07-26T11:10:42.197Z,98277.81
2022-07-26T11:13:16.067Z,98277.21
2022-07-26T11:15:49.194Z,98276.02
2022-07-26T11:18:29.518Z,98276.86
2022-07-26T11:21:13.487Z,98273.95
2022-07-26T11:23:44.964Z,98284.77
2022-07-26T11:26:21.559Z,98279.98
2022-07-26T11:28:59.675Z,98282.86
2022-07-26T11:31:55.411Z,98288.10
2022-07-26T11:34:34.190Z,98283.45
2022-07-26T11:37:05.346Z,98287.39
2022-07-26T11:39:35.579Z,98283.98
2022-07-26T11:42:09.091Z,98288.73
2022-07-26T11:44:38.035Z,98295.23
2022-07-26T11:47:24.197Z,98299.98
2022-07-26T11:52:43.641Z,98300.55
2022-07-26T11:55:12.736Z,98302.21
2022-07-26T11:57:42.627Z,98299.02
2022-07-26T12:00:16.872Z,98297.72
2022-07-26T12:02:46.785Z,98301.55
2022-07-26T12:05:23.805Z,98296.42
2022-07-26T12:08:08.196Z,98300.61
2022-07-26T12:10:37.413Z,98298.35
2022-07-26T12:13:16.075Z,98292.96
2022-07-26T12:15:52.967Z,98302.86
2022-07-26T12:18:31.649Z,98300.79
2022-07-26T12:21:05.177Z,98303.16
2022-07-26T12:23:48.689Z,98306.27
2022-07-26T12:26:30.949Z,98305.79
2022-07-26T12:29:20.125Z,98307.83
2022-07-26T12:32:02.975Z,98315.85
2022-07-26T12:34:31.886Z,98314.55
2022-07-26T12:37:07.737Z,98317.20
2022-07-26T12:39:35.776Z,98314.84
2022-07-26T12:42:33.424Z,98315.17
2022-07-26T12:45:07.727Z,98321.83
2022-07-26T12:47:38.095Z,98318.30
2022-07-26T12:50:08.617Z,98321.66
2022-07-26T12:52:38.630Z,98322.59
2022-07-26T12:55:10.327Z,98324.53
2022-07-26T12:57:38.157Z,98331.69
2022-07-26T13:00:12.753Z,98326.52
2022-07-26T13:02:45.749Z,98329.30
2022-07-26T13:05:15.226Z,98339.85
2022-07-26T13:07:44.151Z,98338.92
2022-07-26T13:10:32.353Z,98340.56
2022-07-26T13:13:04.385Z,98346.41
2022-07-26T13:15:36.138Z,98356.77
2022-07-26T13:18:08.505Z,98360.59
2022-07-26T13:20:38.995Z,98370.87
2022-07-26T13:23:12.700Z,98380.71
2022-07-26T13:25:44.122Z,98393.09
2022-07-26T13:28:12.909Z,98391.55
2022-07-26T13:30:43.348Z,98396.20
2022-07-26T13:33:14.314Z,98393.13
2022-07-26T13:35:44.243Z,98396.17
2022-07-26T13:38:12.178Z,98400.16
2022-07-26T13:40:40.987Z,98407.14
2022-07-26T13:43:10.101Z,98408.95
2022-07-26T13:45:37.936Z,98410.48
2022-07-26T13:48:08.473Z,98414.91
2022-07-26T13:50:37.363Z,98412.48
2022-07-26T13:53:05.164Z,98415.20
2022-07-26T13:55:33.739Z,98417.29
2022-07-26T13:58:09.208Z,98420.38
2022-07-26T14:00:41.855Z,98425.02
2022-07-26T14:03:10.726Z,98430.80
2022-07-26T14:05:38.540Z,98435.42
2022-07-26T14:08:08.431Z,98442.48
2022-07-26T14:10:40.067Z,98447.35
2022-07-26T14:13:09.581Z,98459.33
2022-07-26T14:15:40.503Z,98451.66
2022-07-26T14:18:10.239Z,98455.83
2022-07-26T14:20:39.076Z,98464.51
2022-07-26T14:23:06.830Z,98476.32
2022-07-26T14:25:37.306Z,98481.61
2022-07-26T14:28:06.364Z,98486.11
2022-07-26T14:30:35.852Z,98489.44
2022-07-26T14:33:05.974Z,98499.46
2022-07-26T14:35:33.982Z,98503.48
2022-07-26T14:38:01.693Z,98497.70
2022-07-26T14:40:30.804Z,98485.06
2022-07-26T14:42:59.623Z,98481.49
2022-07-26T14:45:27.710Z,98484.85
2022-07-26T14:47:57.325Z,98481.88
2022-07-26T14:50:28.349Z,98475.42
2022-07-26T14:52:56.369Z,98475.17
2022-07-26T14:55:25.825Z,98479.21
2022-07-26T14:57:55.014Z,98480.85
2022-07-26T15:00:25.983Z,98483.40
2022-07-26T15:02:54.823Z,98487.46
2022-07-26T15:05:25.405Z,98489.16
2022-07-26T15:07:57.277Z,98492.33
2022-07-26T15:10:32.703Z,98500.38
2022-07-26T15:13:05.602Z,98503.64
2022-07-26T15:15:34.420Z,98510.19
2022-07-26T15:18:02.406Z,98508.38
2022-07-26T15:20:30.409Z,98504.48
2022-07-26T15:22:58.836Z,98508.52
2022-07-26T15:25:27.298Z,98513.20
2022-07-26T15:27:55.259Z,98512.84
2022-07-26T15:30:25.538Z,98513.05
2022-07-26T15:32:58.954Z,98510.45
2022-07-26T15:35:26.770Z,98503.01
2022-07-26T15:37:54.574Z,98503.78
2022-07-26T15:40:22.309Z,98506.34
2022-07-26T15:42:53.052Z,98511.77
2022-07-26T15:45:23.103Z,98516.73
2022-07-26T15:47:59.323Z,98514.91
2022-07-26T15:50:34.096Z,98515.41
2022-07-26T15:53:03.188Z,98522.56
2022-07-26T15:55:31.193Z,98523.52
2022-07-26T15:58:00.329Z,98524.88
2022-07-26T16:00:29.162Z,98523.89
2022-07-26T16:02:56.854Z,98524.46
2022-07-26T16:05:26.336Z,98525.16
2022-07-26T16:07:57.015Z,98530.75
2022-07-26T16:10:26.147Z,98527.23
2022-07-26T16:12:56.873Z,98531.52
2022-07-26T16:15:25.219Z,98533.24
2022-07-26T16:17:54.234Z,98534.05
2022-07-26T16:20:22.005Z,98530.95
2022-07-26T16:22:51.275Z,98532.34
2022-07-26T16:25:19.247Z,98535.77
2022-07-26T16:27:47.878Z,98537.48
2022-07-26T16:30:18.243Z,98541.02
2022-07-26T16:32:49.454Z,98543.92
2022-07-26T16:35:18.013Z,98545.96
2022-07-26T16:37:46.059Z,98544.67
2022-07-26T16:40:15.973Z,98546.39
2022-07-26T16:42:43.711Z,98544.73
2022-07-26T16:45:12.365Z,98541.97
2022-07-26T16:47:44.888Z,98544.20
2022-07-26T16:50:15.012Z,98546.29
2022-07-26T16:52:58.089Z,98542.70
2022-07-26T16:55:25.929Z,98540.26
2022-07-26T16:57:55.487Z,98540.80
2022-07-26T17:00:23.273Z,98541.16
2022-07-26T17:02:51.293Z,98540.95
2022-07-26T17:05:19.352Z,98544.55
2022-07-26T17:07:47.588Z,98542.65
2022-07-26T17:10:15.416Z,98542.27
2022-07-26T17:12:43.164Z,98545.04
2022-07-26T17:15:14.065Z,98546.84
2022-07-26T17:17:45.659Z,98548.75
2022-07-26T17:20:18.003Z,98548.92
2022-07-26T17:22:46.909Z,98549.75
2022-07-26T17:25:14.698Z,98550.09
2022-07-26T17:27:42.483Z,98549.02
2022-07-26T17:30:10.866Z,98555.40
2022-07-26T17:32:38.891Z,98557.29
2022-07-26T17:35:09.314Z,98563.84
2022-07-26T17:37:40.167Z,98568.44
2022-07-26T17:40:11.464Z,98569.88
2022-07-26T17:42:42.043Z,98571.30
2022-07-26T17:45:12.811Z,98572.64
2022-07-26T17:47:43.367Z,98576.16
2022-07-26T17:50:35.539Z,98579.36
2022-07-26T17:53:01.596Z,98587.27
2022-07-26T17:55:29.555Z,98586.08
2022-07-26T17:58:00.788Z,98588.20
2022-07-26T18:00:31.650Z,98597.49
2022-07-26T18:02:59.617Z,98600.63
2022-07-26T18:05:34.228Z,98603.31
2022-07-26T18:08:07.774Z,98605.70
2022-07-26T18:10:38.377Z,98607.70
2022-07-26T18:13:08.546Z,98609.60
2022-07-26T18:15:36.652Z,98614.41
2022-07-26T18:18:10.563Z,98614.71
2022-07-26T18:20:40.179Z,98613.78
2022-07-26T18:23:10.480Z,98615.13
2022-07-26T18:25:38.710Z,98616.49
2022-07-26T18:28:10.298Z,98619.91
2022-07-26T18:30:40.690Z,98621.62
2022-07-26T18:33:14.667Z,98625.69
2022-07-26T18:35:45.399Z,98628.60
2022-07-26T18:38:15.093Z,98630.91
2022-07-26T18:40:44.811Z,98636.90
2022-07-26T18:43:14.056Z,98637.09
2022-07-26T18:45:42.395Z,98641.30
2022-07-26T18:48:12.953Z,98643.59
2022-07-26T18:50:42.311Z,98645.34
2022-07-26T18:53:11.129Z,98648.75
2022-07-26T18:55:40.722Z,98644.63
2022-07-26T18:58:08.840Z,98646.45
2022-07-26T19:00:36.972Z,98644.98
2022-07-26T19:03:06.626Z,98647.27
2022-07-26T19:05:37.337Z,98646.48
2022-07-26T19:08:05.477Z,98645.54
2022-07-26T19:10:34.069Z,98643.92
2022-07-26T19:13:02.185Z,98644.94
2022-07-26T19:15:32.198Z,98640.91
2022-07-26T19:18:09.319Z,98635.75
2022-07-26T19:20:37.080Z,98636.86
2022-07-26T19:23:07.189Z,98634.22
2022-07-26T19:25:35.188Z,98637.92
2022-07-26T19:28:09.349Z,98640.44
2022-07-26T19:30:39.535Z,98639.09
2022-07-26T19:33:07.918Z,98637.71
2022-07-26T19:35:36.171Z,98637.95
2022-07-26T19:38:06.999Z,98636.84
2022-07-26T19:40:36.409Z,98634.11
2022-07-26T19:43:06.647Z,98632.54
2022-07-26T19:45:34.414Z,98634.50
2022-07-26T19:48:02.267Z,98635.04
2022-07-26T19:50:31.252Z,98632.68
2022-07-26T19:52:59.353Z,98628.28
2022-07-26T19:55:27.445Z,98630.48
2022-07-26T19:57:58.560Z,98636.32
2022-07-26T20:00:31.002Z,98633.92
2022-07-26T20:02:58.931Z,98639.21
2022-07-26T20:05:29.913Z,98639.39
2022-07-26T20:07:58.671Z,98640.41
2022-07-26T20:10:32.246Z,98643.88
2022-07-26T20:13:00.734Z,98643.02
2022-07-26T20:15:31.043Z,98643.22
2022-07-26T20:17:59.197Z,98643.60
2022-07-26T20:20:30.287Z,98644.95
2022-07-26T20:22:58.191Z,98647.16
2022-07-26T20:25:28.375Z,98656.49
2022-07-26T20:27:58.055Z,98660.11
2022-07-26T20:30:28.179Z,98661.41
2022-07-26T20:32:56.033Z,98661.98
2022-07-26T20:35:26.097Z,98660.48
2022-07-26T20:37:54.060Z,98665.48
2022-07-26T20:40:22.058Z,98669.12
2022-07-26T20:42:54.443Z,98671.23
2022-07-26T20:45:27.252Z,98674.20
2022-07-26T20:47:56.222Z,98671.58
2022-07-26T20:50:24.285Z,98671.67
2022-07-26T20:52:52.110Z,98669.67
2022-07-26T20:55:26.983Z,98672.83
2022-07-26T20:57:57.071Z,98667.02
2022-07-26T21:00:29.472Z,98663.82
2022-07-26T21:03:00.588Z,98662.40
2022-07-26T21:05:32.334Z,98659.03
2022-07-26T21:08:02.334Z,98661.10
2022-07-26T21:10:32.727Z,98660.80
2022-07-26T21:13:01.386Z,98663.88
2022-07-26T21:15:32.772Z,98668.98
2022-07-26T21:18:01.492Z,98668.43
2022-07-26T21:20:29.293Z,98666.09
2022-07-26T21:23:08.068Z,98669.11
2022-07-26T21:25:44.242Z,98670.74
2022-07-26T21:28:12.016Z,98673.86
2022-07-26T21:30:40.665Z,98673.41
2022-07-26T21:33:08.599Z,98676.25
2022-07-26T21:35:37.018Z,98673.59
2022-07-26T21:38:04.837Z,98673.98
2022-07-26T21:40:32.562Z,98677.33
2022-07-26T21:43:01.318Z,98672.20
2022-07-26T21:45:31.754Z,98676.52
2022-07-26T21:48:03.173Z,98674.98
2022-07-26T21:50:35.057Z,98676.86
2022-07-26T21:53:02.821Z,98676.94
2022-07-26T21:55:32.841Z,98677.58
2022-07-26T21:58:01.229Z,98681.20
2022-07-26T22:00:28.944Z,98683.92
2022-07-26T22:02:58.469Z,98677.20
2022-07-26T22:05:43.942Z,98682.10
2022-07-26T22:08:15.068Z,98685.60
2022-07-26T22:10:48.363Z,98683.98
2022-07-26T22:13:16.547Z,98685.44
2022-07-26T22:15:46.106Z,98687.89
2022-07-26T22:18:15.065Z,98690.95
2022-07-26T22:20:47.488Z,98688.94
2022-07-26T22:23:17.365Z,98690.88
2022-07-26T22:25:48.491Z,98694.38
2022-07-26T22:28:17.927Z,98694.88
2022-07-26T22:30:50.674Z,98697.80
2022-07-26T22:33:18.668Z,98694.14
2022-07-26T22:35:50.579Z,98689.23
2022-07-26T22:38:21.515Z,98689.86
2022-07-26T22:40:51.766Z,98688.11
2022-07-26T22:43:19.775Z,98691.87
2022-07-26T22:45:49.255Z,98691.73
2022-07-26T22:48:18.084Z,98692.35
2022-07-26T22:50:46.022Z,98694.27
2022-07-26T22:53:14.961Z,98692.27
2022-07-26T22:55:42.956Z,98689.07
2022-07-26T22:58:11.714Z,98694.18
2022-07-26T23:00:39.569Z,98696.42
2022-07-26T23:03:20.382Z,98697.11
2022-07-26T23:05:52.356Z,98698.63
2022-07-26T23:08:47.077Z,98699.63
2022-07-26T23:11:12.690Z,98692.27
2022-07-26T23:13:44.787Z,98699.13
2022-07-26T23:16:12.566Z,98698.66
2022-07-26T23:18:43.810Z,98695.80
2022-07-26T23:21:11.662Z,98692.73
2022-07-26T23:23:39.632Z,98693.70
2022-07-26T23:26:07.500Z,98694.36
2022-07-26T23:28:38.268Z,98697.39
2022-07-26T23:31:08.846Z,98697.98
2022-07-26T23:33:51.612Z,98701.77
2022-07-26T23:36:27.304Z,98691.49
2022-07-26T23:38:57.076Z,98692.61
2022-07-26T23:41:26.748Z,98690.11
2022-07-26T23:43:55.337Z,98690.55
2022-07-26T23:46:23.696Z,98694.84
2022-07-26T23:48:52.610Z,98692.45
2022-07-26T23:51:23.022Z,98694.20
2022-07-26T23:53:51.808Z,98698.38
2022-07-26T23:56:19.965Z,98701.80
2022-07-26T23:58:47.952Z,98702.85
